Time;durP1;ratioP1;P1;durP2;ratioP2;P2;SDS_P1;SDS_P2;PMS_P1;PMS_P2;Temp;Humidity;BMP_temperature;BMP_pressure;BME280_temperature;BME280_humidity;BME280_pressure;Samples;Min_cycle;Max_cycle;Signal;HPM_P1;HPM_P2
2023/04/25 00:00:00;;;;;;;24.35;7.75;;;10.10;99.90;;;10.17;74.90;101030.31;5116176;28;20054;-71
2023/04/25 00:02:28;;;;;;;22.63;7.55;;;10.00;99.90;;;10.34;74.85;101024.13;5116134;28;20043;-72
2023/04/25 00:04:58;;;;;;;30.02;7.20;;;10.10;99.90;;;10.41;74.22;101027.66;5116364;28;20485;-71
2023/04/25 00:07:27;;;;;;;22.98;7.47;;;10.20;99.90;;;10.44;73.87;101019.72;5115839;28;20028;-72
2023/04/25 00:09:56;;;;;;;25.92;6.30;;;10.30;99.90;;;10.37;74.59;101025.91;5115973;28;20449;-71
2023/04/25 00:12:25;;;;;;;21.80;6.40;;;10.10;99.90;;;10.17;74.00;101035.59;5116574;28;20074;-71
2023/04/25 00:14:53;;;;;;;24.38;7.53;;;10.10;99.90;;;10.00;74.71;101039.09;5097719;28;20835;-72
2023/04/25 00:17:21;;;;;;;20.75;7.05;;;9.80;99.90;;;10.26;73.98;101035.63;5115734;28;20067;-71
2023/04/25 00:19:50;;;;;;;24.20;6.75;;;10.00;99.90;;;9.86;73.14;101030.28;5116063;28;20064;-71
2023/04/25 00:22:18;;;;;;;19.80;6.60;;;9.70;99.90;;;9.80;73.47;101030.25;5116005;28;20050;-71
2023/04/25 00:24:46;;;;;;;21.27;7.15;;;9.60;99.90;;;9.95;72.45;101027.63;5115701;28;20082;-71
2023/04/25 00:27:16;;;;;;;23.38;7.13;;;9.70;99.90;;;9.95;72.59;101026.75;5115697;28;20050;-71
2023/04/25 00:29:45;;;;;;;17.67;6.07;;;9.70;99.90;;;10.09;72.07;101034.66;5115648;28;20505;-71
2023/04/25 00:32:13;;;;;;;19.92;7.20;;;9.80;99.90;;;10.24;71.51;101032.09;5115868;28;20115;-71
2023/04/25 00:34:42;;;;;;;20.17;6.90;;;10.00;99.90;;;10.33;71.53;101029.44;5097488;28;20074;-71
2023/04/25 00:37:10;;;;;;;20.45;6.90;;;10.10;99.90;;;10.26;71.54;101032.97;5115774;28;20048;-72
2023/04/25 00:39:38;;;;;;;17.83;7.45;;;10.00;99.90;;;9.95;72.60;101042.59;5115373;28;20040;-72
2023/04/25 00:42:07;;;;;;;19.77;7.00;;;9.80;99.90;;;10.05;72.48;101028.50;5097288;28;20036;-72
2023/04/25 00:44:38;;;;;;;20.27;6.63;;;9.90;99.90;;;10.06;72.07;101027.66;5115622;28;20130;-71
2023/04/25 00:47:07;;;;;;;20.80;6.93;;;9.90;99.90;;;10.03;72.36;101046.13;5115469;28;20082;-71
2023/04/25 00:49:36;;;;;;;18.90;6.93;;;9.80;99.90;;;10.05;72.18;101044.38;5097086;28;20056;-71
2023/04/25 00:52:04;;;;;;;29.48;8.07;;;9.80;99.90;;;10.20;71.87;101044.41;5115205;28;20050;-71
2023/04/25 00:54:33;;;;;;;24.98;6.57;;;9.90;99.90;;;10.27;70.86;101048.81;5115127;28;20063;-71
2023/04/25 00:57:02;;;;;;;17.83;6.57;;;10.00;99.90;;;10.36;70.25;101046.16;5097097;28;20058;-71
2023/04/25 00:59:30;;;;;;;23.35;6.85;;;10.20;99.90;;;10.40;70.71;101054.97;5097017;28;20043;-71
2023/04/25 01:02:00;;;;;;;25.75;7.50;;;10.20;99.90;;;10.51;70.03;101046.13;5115262;28;20565;-71
2023/04/25 01:04:29;;;;;;;17.52;6.72;;;10.30;99.90;;;10.63;69.90;101051.41;5114994;28;20534;-71
2023/04/25 01:06:59;;;;;;;20.42;7.47;;;10.40;99.90;;;10.51;70.06;101050.56;5115158;28;20039;-71
2023/04/25 01:09:27;;;;;;;25.33;7.50;;;10.30;99.90;;;10.64;69.88;101055.84;5115092;28;20096;-71
2023/04/25 01:11:57;;;;;;;23.95;6.93;;;10.40;99.90;;;10.76;69.73;101054.94;5114773;28;20044;-71
2023/04/25 01:14:25;;;;;;;20.58;6.90;;;10.50;99.90;;;10.86;69.35;101052.25;5115330;28;20050;-71
2023/04/25 01:16:54;;;;;;;22.15;6.30;;;10.60;99.90;;;10.57;68.88;101055.81;5114910;28;20138;-72
2023/04/25 01:19:25;;;;;;;24.85;7.47;;;10.40;99.90;;;10.55;68.80;101053.19;5096728;28;20047;-71
2023/04/25 01:21:55;;;;;;;19.60;6.75;;;10.30;99.90;;;10.63;67.85;101062.00;5114611;28;20077;-71
2023/04/25 01:24:24;;;;;;;17.55;5.95;;;10.50;99.90;;;10.70;67.89;101049.66;5096413;28;20044;-71
2023/04/25 01:26:52;;;;;;;20.42;7.15;;;10.50;99.90;;;10.66;66.48;101058.47;5114842;28;20094;-71
2023/04/25 01:29:24;;;;;;;21.00;6.68;;;10.50;99.90;;;10.57;66.22;101063.75;5096449;28;20417;-71
2023/04/25 01:31:53;;;;;;;23.25;6.88;;;10.40;99.90;;;10.63;65.74;101063.75;5096380;28;20054;-71
2023/04/25 01:34:22;;;;;;;26.13;7.72;;;10.40;99.90;;;10.74;66.21;101065.50;5096240;28;20040;-71
2023/04/25 01:36:51;;;;;;;24.05;6.85;;;10.50;99.90;;;10.18;66.46;101053.22;5114485;28;20122;-71
2023/04/25 01:39:22;;;;;;;23.58;6.75;;;10.20;99.90;;;10.24;66.93;101062.03;5114514;28;20146;-71
2023/04/25 01:41:50;;;;;;;23.48;6.53;;;10.10;99.90;;;10.33;65.58;101069.09;5114533;28;20050;-71
2023/04/25 01:44:19;;;;;;;24.48;6.72;;;10.20;99.90;;;10.01;66.47;101064.63;5114369;28;20135;-71
2023/04/25 01:46:47;;;;;;;25.45;6.80;;;9.90;99.90;;;9.97;66.91;101067.25;5114229;28;20044;-71
2023/04/25 01:49:15;;;;;;;18.92;6.55;;;9.80;99.90;;;9.80;66.66;101066.34;5113998;28;20485;-71
2023/04/25 01:51:45;;;;;;;21.23;7.38;;;9.70;99.90;;;9.66;66.99;101055.75;5095158;28;20059;-71
2023/04/25 01:54:14;;;;;;;20.48;7.05;;;9.60;99.90;;;9.59;67.93;101068.94;5095971;28;20446;-71
2023/04/25 01:56:43;;;;;;;26.77;7.15;;;9.50;99.90;;;9.58;68.31;101065.41;5095852;28;20401;-71
2023/04/25 01:59:12;;;;;;;24.10;7.30;;;9.40;99.90;;;9.51;68.35;101068.94;5095964;28;20058;-71
2023/04/25 02:02:05;;;;;;;19.63;7.45;;;9.30;99.90;;;9.82;68.26;101076.06;5095799;28;20093;-71
2023/04/25 02:04:35;;;;;;;23.05;6.90;;;9.50;99.90;;;9.96;68.01;101073.44;5114136;28;20042;-71
2023/04/25 02:07:05;;;;;;;19.75;6.95;;;9.70;99.90;;;10.15;67.52;101071.72;5095741;28;20051;-71
2023/04/25 02:09:43;;;;;;;20.73;6.60;;;9.90;99.90;;;9.92;67.81;101069.91;5095712;28;20051;-71
2023/04/25 02:12:14;;;;;;;17.13;6.30;;;9.70;99.90;;;10.16;67.84;101077.03;5095693;28;20097;-71
2023/04/25 02:14:59;;;;;;;22.60;7.22;;;9.90;99.90;;;9.95;67.62;101077.84;5095696;28;20040;-71
2023/04/25 02:18:00;;;;;;;20.88;7.75;;;9.80;99.90;;;9.97;68.42;101080.47;5094467;28;20040;-71
2023/04/25 02:20:31;;;;;;;15.30;6.45;;;9.70;99.90;;;9.86;68.33;101072.53;5095443;28;20048;-71
2023/04/25 02:22:59;;;;;;;19.98;7.05;;;9.70;99.90;;;9.58;69.40;101072.50;5095548;28;20044;-71
2023/04/25 02:25:29;;;;;;;27.67;7.00;;;9.40;99.90;;;9.76;69.17;101067.22;5095195;28;20036;-71
2023/04/25 02:27:59;;;;;;;20.80;6.90;;;9.50;99.90;;;9.82;69.53;101072.53;5095316;28;20086;-71
2023/04/25 02:30:27;;;;;;;21.08;6.30;;;9.60;99.90;;;9.55;68.82;101028.47;5095389;28;20051;-71
2023/04/25 02:32:56;;;;;;;23.42;7.32;;;9.60;99.90;;;9.81;69.12;101070.78;5095380;28;20047;-71
2023/04/25 02:35:24;;;;;;;23.67;6.90;;;9.60;99.90;;;9.51;69.95;101047.81;5095285;28;20079;-71
2023/04/25 02:37:55;;;;;;;26.85;7.63;;;9.40;99.90;;;9.88;70.21;101075.19;5095264;28;20412;-71
2023/04/25 02:40:23;;;;;;;21.38;7.18;;;9.50;99.90;;;9.98;69.54;101084.88;5095285;28;20096;-71
2023/04/25 02:42:55;;;;;;;21.38;6.55;;;9.60;99.90;;;10.09;69.40;101083.13;5113522;28;20043;-71
2023/04/25 02:45:24;;;;;;;23.90;7.05;;;9.80;99.90;;;10.00;69.16;101081.38;5113445;28;20075;-71
2023/04/25 02:47:52;;;;;;;19.38;6.80;;;9.80;99.90;;;10.01;68.60;101082.25;5113035;28;20082;-71
2023/04/25 02:50:21;;;;;;;19.85;6.60;;;9.80;99.90;;;10.10;69.15;101082.31;5113386;28;20039;-71
2023/04/25 02:52:49;;;;;;;25.20;6.75;;;9.90;99.90;;;10.06;69.01;101082.25;5113099;28;20067;-71
2023/04/25 02:55:23;;;;;;;25.40;5.85;;;9.90;99.90;;;9.75;68.80;101081.31;5095171;28;20036;-71
2023/04/25 02:57:56;;;;;;;20.90;6.25;;;9.70;99.90;;;9.81;69.40;101078.69;5094955;28;20043;-71
2023/04/25 03:00:38;;;;;;;17.73;5.95;;;9.60;99.90;;;9.97;69.14;101080.47;5095055;28;20515;-71
2023/04/25 03:03:06;;;;;;;20.97;6.17;;;9.80;99.90;;;10.13;68.46;101073.47;5114660;28;20042;-71
2023/04/25 03:05:35;;;;;;;20.00;6.10;;;10.00;99.90;;;10.03;68.17;101078.72;5099081;28;20278;-71
2023/04/25 03:08:04;;;;;;;15.20;5.90;;;9.90;99.90;;;9.94;69.00;101077.84;5117468;28;20046;-71
2023/04/25 03:10:34;;;;;;;20.25;7.25;;;9.70;99.90;;;10.03;68.67;101088.41;5117449;28;20067;-71
2023/04/25 03:13:06;;;;;;;16.95;5.53;;;9.80;99.90;;;10.11;68.66;101085.81;5099080;28;20138;-71
2023/04/25 03:15:35;;;;;;;21.30;6.53;;;9.90;99.90;;;10.25;68.27;101087.59;5099018;28;20043;-71
2023/04/25 03:18:05;;;;;;;18.58;5.85;;;10.00;99.90;;;10.30;67.53;101083.19;5098879;28;20150;-71
2023/04/25 03:20:34;;;;;;;14.07;5.45;;;10.10;99.90;;;10.33;66.97;101092.88;5117309;28;20048;-71
2023/04/25 03:23:04;;;;;;;17.02;6.07;;;10.20;99.90;;;10.36;66.53;101077.88;5098986;28;20048;-71
2023/04/25 03:25:32;;;;;;;16.67;5.72;;;10.30;99.90;;;10.50;66.11;101089.34;5098805;28;20050;-71
2023/04/25 03:28:01;;;;;;;24.50;6.15;;;10.40;99.90;;;10.40;65.90;101090.22;5117330;28;20046;-71
2023/04/25 03:30:29;;;;;;;20.67;5.90;;;10.30;99.90;;;10.29;66.29;101088.47;5098661;28;20043;-71
2023/04/25 03:32:57;;;;;;;21.08;5.38;;;10.20;99.90;;;10.21;66.46;101091.13;5098683;28;20039;-71
2023/04/25 03:35:27;;;;;;;16.92;5.25;;;10.10;99.90;;;10.33;66.62;101090.22;5098627;28;20048;-71
2023/04/25 03:37:56;;;;;;;19.77;5.25;;;10.10;99.90;;;10.41;66.03;101091.13;5098652;28;20130;-71
2023/04/25 03:40:29;;;;;;;17.30;5.97;;;10.30;99.90;;;10.21;66.76;101093.75;5098483;28;20126;-71
2023/04/25 03:43:12;;;;;;;19.48;5.78;;;10.20;99.90;;;10.06;67.99;101103.41;5098486;28;20044;-71
2023/04/25 03:45:47;;;;;;;17.38;5.25;;;10.00;99.90;;;10.25;68.07;101099.91;5098235;28;20048;-71
2023/04/25 03:48:17;;;;;;;15.50;5.82;;;10.00;99.90;;;10.14;68.47;101112.25;5097999;28;20509;-71
2023/04/25 03:50:47;;;;;;;20.60;6.80;;;10.00;99.90;;;9.95;68.43;101098.97;5098303;28;20489;-71
2023/04/25 03:53:15;;;;;;;22.00;6.30;;;9.80;99.90;;;9.76;67.02;101105.09;5116703;28;20086;-71
2023/04/25 03:56:04;;;;;;;9.70;5.32;;;9.60;99.90;;;9.46;65.29;101107.66;5074482;28;20047;-71
2023/04/25 03:58:35;;;;;;;10.85;5.60;;;9.30;99.90;;;9.25;65.33;101110.22;5098178;28;20413;-71
2023/04/25 04:01:07;;;;;;;13.93;5.72;;;9.10;99.90;;;9.32;65.12;101105.81;5098260;28;20138;-71
2023/04/25 04:03:38;;;;;;;14.55;5.25;;;9.10;99.90;;;9.28;65.66;101104.03;5098261;28;20089;-71
2023/04/25 04:06:10;;;;;;;15.30;5.65;;;9.10;99.90;;;9.46;65.90;101131.41;5098093;28;20476;-71
2023/04/25 04:08:46;;;;;;;19.67;5.50;;;9.30;99.90;;;9.77;65.41;101116.56;5098047;28;20139;-71
2023/04/25 04:11:14;;;;;;;12.75;5.18;;;9.50;99.90;;;9.96;65.08;101126.28;5116293;28;20048;-71
2023/04/25 04:13:42;;;;;;;15.60;5.60;;;9.70;99.90;;;9.95;65.00;101124.50;5097968;28;20081;-71
2023/04/25 04:16:11;;;;;;;8.70;5.10;;;9.80;99.90;;;10.15;64.90;101129.88;5097109;28;20169;-71
2023/04/25 04:18:40;;;;;;;15.18;5.13;;;9.90;99.90;;;10.06;65.18;101125.44;5097706;28;20458;-71
2023/04/25 04:21:09;;;;;;;18.67;6.18;;;9.90;99.90;;;9.81;65.92;101124.47;5097859;28;20040;-71
2023/04/25 04:23:41;;;;;;;14.70;5.97;;;9.70;99.90;;;10.18;66.16;101127.25;5097453;28;20455;-71
2023/04/25 04:26:12;;;;;;;12.77;5.47;;;9.90;99.90;;;10.12;66.21;101127.22;5097684;28;20104;-71
2023/04/25 04:28:48;;;;;;;17.50;5.95;;;9.90;99.90;;;10.20;66.17;101128.13;5115918;28;20043;-71
2023/04/25 04:31:39;;;;;;;19.85;5.53;;;9.90;99.90;;;10.23;65.97;101125.47;5097613;28;20081;-71
2023/04/25 04:34:07;;;;;;;12.90;5.20;;;10.00;99.90;;;10.08;67.03;101123.66;5097469;28;20561;-71
2023/04/25 04:36:37;;;;;;;13.40;5.55;;;9.80;99.90;;;10.25;66.61;101126.34;5097184;28;20071;-71
2023/04/25 04:39:06;;;;;;;17.10;5.77;;;9.90;99.90;;;10.43;66.43;101131.66;5097283;28;20043;-71
2023/04/25 04:42:03;;;;;;;16.42;5.65;;;10.20;99.90;;;10.07;66.43;101118.34;5097358;28;20043;-71
2023/04/25 04:44:39;;;;;;;19.85;5.50;;;9.90;99.90;;;10.16;66.18;101132.53;5097402;28;20082;-71
2023/04/25 04:47:25;;;;;;;17.95;6.03;;;9.90;99.90;;;9.57;66.03;101034.63;5097050;28;20071;-71
2023/04/25 04:50:12;;;;;;;18.83;5.45;;;9.90;99.90;;;10.21;66.08;101135.16;5097240;28;20508;-71
2023/04/25 04:53:00;;;;;;;14.52;5.68;;;10.00;99.90;;;10.37;65.72;101147.53;5115528;28;20169;-71
2023/04/25 04:55:56;;;;;;;17.05;5.63;;;10.10;99.90;;;10.42;65.63;101143.09;5097102;28;20381;-71
2023/04/25 04:58:48;;;;;;;20.17;5.97;;;10.20;99.90;;;10.35;65.98;101150.19;5076398;28;20141;-71
2023/04/25 05:01:29;;;;;;;20.35;6.18;;;10.20;99.90;;;10.33;66.45;101158.97;5097020;28;20061;-71
2023/04/25 05:04:21;;;;;;;16.50;5.43;;;10.10;99.90;;;10.48;66.56;101162.50;5076390;28;20059;-71
2023/04/25 05:07:21;;;;;;;12.88;5.43;;;10.30;99.90;;;10.57;66.61;101166.91;5096872;28;20049;-71
2023/04/25 05:10:12;;;;;;;15.43;5.50;;;10.40;99.90;;;10.57;66.68;101162.50;5114160;28;20058;-71
2023/04/25 05:12:58;;;;;;;15.60;5.70;;;10.40;99.90;;;10.60;67.05;101181.03;5115000;28;20040;-71
2023/04/25 05:15:51;;;;;;;19.55;6.00;;;10.40;99.90;;;10.68;66.98;101181.03;5115045;28;20039;-71
2023/04/25 05:18:31;;;;;;;17.37;6.00;;;10.50;99.90;;;10.73;66.73;101179.28;5114983;28;20035;-71
2023/04/25 05:21:22;;;;;;;19.80;6.22;;;10.50;99.90;;;10.72;66.92;101193.41;5096657;28;20293;-71
2023/04/25 05:24:09;;;;;;;11.85;5.07;;;10.50;99.90;;;10.63;66.44;101198.66;5114827;28;20133;-71
2023/04/25 05:26:39;;;;;;;16.20;5.43;;;10.50;99.90;;;10.44;66.49;101207.47;5113629;28;20105;-71
2023/04/25 05:29:29;;;;;;;13.93;5.47;;;10.30;99.90;;;10.47;66.49;101216.28;5096461;28;20158;-71
2023/04/25 05:32:16;;;;;;;11.90;5.10;;;10.30;99.90;;;10.12;66.25;101220.63;5096459;28;20048;-71
2023/04/25 05:34:46;;;;;;;13.00;5.10;;;10.10;99.90;;;10.13;66.33;101216.19;5096420;28;20078;-71
2023/04/25 05:37:26;;;;;;;13.40;4.97;;;10.00;99.90;;;10.28;65.97;101218.91;5096326;28;20071;-72
2023/04/25 05:39:58;;;;;;;14.55;5.18;;;10.10;99.90;;;10.26;66.00;101218.03;5096781;28;20047;-71
2023/04/25 05:42:49;;;;;;;10.00;4.50;;;10.10;99.90;;;10.27;65.90;101223.31;5114424;28;20070;-72
2023/04/25 05:45:20;;;;;;;11.75;4.93;;;10.10;99.90;;;10.27;65.54;101227.69;5114433;28;20135;-71
2023/04/25 05:48:06;;;;;;;14.00;4.85;;;10.10;99.90;;;10.36;66.15;101225.97;5095883;28;20059;-71
2023/04/25 05:50:55;;;;;;;10.48;5.13;;;10.30;99.90;;;10.40;65.65;101222.44;5096138;28;20055;-71
2023/04/25 05:53:39;;;;;;;10.80;4.63;;;10.30;99.90;;;10.25;64.53;101227.69;5095918;28;20073;-71
2023/04/25 05:56:07;;;;;;;10.27;5.13;;;10.10;99.90;;;10.44;64.20;101232.16;5095907;28;20086;-71
2023/04/25 05:58:37;;;;;;;11.55;5.15;;;10.20;99.90;;;10.43;63.88;101234.81;5095644;28;20070;-71
2023/04/25 06:01:05;;;;;;;7.82;5.10;;;10.30;99.90;;;10.39;63.91;101240.97;5095744;28;20543;-71
2023/04/25 06:03:34;;;;;;;6.32;4.15;;;10.20;99.90;;;10.34;64.19;101242.69;5095392;28;20043;-71
2023/04/25 06:06:03;;;;;;;10.90;4.45;;;10.20;99.90;;;10.45;64.17;101241.84;5095632;28;20046;-71
2023/04/25 06:08:32;;;;;;;9.80;4.50;;;10.20;99.90;;;10.32;64.58;101245.34;5095641;28;20043;-72
2023/04/25 06:11:00;;;;;;;12.30;4.95;;;10.20;99.90;;;10.61;64.92;101259.50;5095438;28;20058;-71
2023/04/25 06:13:29;;;;;;;12.27;4.97;;;10.40;99.90;;;10.78;65.05;101267.47;5095543;28;20056;-72
2023/04/25 06:15:59;;;;;;;13.43;5.72;;;10.50;99.90;;;10.90;64.98;101267.47;5095058;28;20088;-72
2023/04/25 06:18:28;;;;;;;12.57;4.93;;;10.70;99.90;;;10.96;64.50;101270.13;5095458;28;20044;-71
2023/04/25 06:20:56;;;;;;;10.50;4.78;;;10.80;99.90;;;11.07;64.49;101275.44;5113954;28;20047;-71
2023/04/25 06:23:25;;;;;;;11.93;4.78;;;10.90;99.90;;;11.08;64.54;101278.06;5095405;28;20046;-71
2023/04/25 06:26:00;;;;;;;9.77;5.20;;;10.90;99.90;;;11.11;64.74;101277.19;5095466;28;20047;-71
2023/04/25 06:28:29;;;;;;;9.48;5.07;;;10.90;99.90;;;11.04;65.01;101260.44;5095075;28;20054;-72
2023/04/25 06:30:59;;;;;;;22.23;5.72;;;11.00;99.90;;;11.19;64.58;101271.00;5095266;28;20138;-71
2023/04/25 06:33:28;;;;;;;15.07;5.30;;;11.00;99.90;;;11.15;64.19;101256.00;5095369;28;20052;-71
2023/04/25 06:35:57;;;;;;;15.38;4.85;;;11.10;99.90;;;11.47;63.84;101285.09;5094916;28;20051;-71
2023/04/25 06:38:28;;;;;;;13.13;5.05;;;11.20;99.90;;;11.44;64.15;101283.34;5094857;28;20065;-71
2023/04/25 06:40:58;;;;;;;13.25;4.97;;;11.30;99.90;;;11.46;64.48;101292.16;5095311;28;20075;-74
2023/04/25 06:43:32;;;;;;;14.02;5.70;;;11.30;99.90;;;11.55;64.02;101299.22;5095163;28;20048;-69
2023/04/25 06:46:05;;;;;;;12.05;5.35;;;11.40;99.90;;;11.57;64.23;101293.06;5113208;28;20044;-69
2023/04/25 06:48:42;;;;;;;14.95;5.53;;;11.40;99.90;;;11.63;63.88;101292.16;5095086;28;20527;-73
2023/04/25 06:51:16;;;;;;;12.20;4.82;;;11.40;99.90;;;11.53;63.95;101274.50;5113016;28;20044;-73
2023/04/25 06:53:48;;;;;;;10.60;5.13;;;11.50;99.90;;;11.67;63.75;101294.81;5094720;28;20142;-73
2023/04/25 06:56:30;;;;;;;12.48;4.93;;;11.50;99.90;;;11.87;64.12;101296.53;5095055;28;20051;-73
2023/04/25 06:59:14;;;;;;;13.10;5.80;;;11.60;99.90;;;12.02;64.04;101299.16;5095012;28;20044;-71
2023/04/25 07:01:46;;;;;;;14.57;5.30;;;11.80;99.90;;;12.06;63.63;101296.47;5094991;28;20047;-74
2023/04/25 07:04:18;;;;;;;12.63;5.25;;;11.90;99.90;;;12.41;64.16;101305.16;5095062;28;20055;-70
2023/04/25 07:06:54;;;;;;;11.43;4.93;;;12.20;99.90;;;12.61;62.46;101311.25;5094864;28;20058;-72
2023/04/25 07:09:33;;;;;;;12.85;4.70;;;12.40;99.90;;;12.72;60.07;101305.88;5094967;28;20051;-72
2023/04/25 07:12:02;;;;;;;12.63;4.35;;;12.50;99.90;;;12.31;57.40;101303.44;5094953;28;20052;-71
2023/04/25 07:14:30;;;;;;;12.85;4.22;;;12.30;99.90;;;12.20;58.40;101313.22;5094862;28;20039;-71
2023/04/25 07:17:01;;;;;;;7.78;4.00;;;12.10;99.90;;;12.29;58.57;101307.00;5094841;28;20047;-71
2023/04/25 07:19:32;;;;;;;11.13;4.78;;;12.10;99.90;;;12.31;57.20;101306.06;5094788;28;20043;-71
2023/04/25 07:22:02;;;;;;;12.90;4.50;;;12.20;99.90;;;12.41;57.27;101318.41;5094992;28;20048;-71
2023/04/25 07:24:32;;;;;;;10.85;4.95;;;12.30;99.90;;;12.46;56.78;101326.38;5094827;28;20056;-71
2023/04/25 07:27:02;;;;;;;13.93;4.65;;;12.30;99.90;;;12.44;56.64;101320.19;5095041;28;20130;-71
2023/04/25 07:29:50;;;;;;;9.48;4.40;;;12.30;99.90;;;12.04;57.05;101330.06;5094616;28;20043;-70
2023/04/25 07:32:20;;;;;;;14.48;4.70;;;11.90;99.90;;;11.94;56.36;101327.44;5094649;28;20108;-70
2023/04/25 07:34:48;;;;;;;8.18;4.13;;;11.80;99.90;;;12.07;55.52;101337.13;5094657;28;20043;-71
2023/04/25 07:37:18;;;;;;;12.40;4.72;;;11.90;99.90;;;12.28;55.35;101334.41;5094638;28;20498;-71
2023/04/25 07:40:01;;;;;;;8.43;4.60;;;12.10;99.90;;;12.33;54.11;101344.09;5094600;28;20442;-72
2023/04/25 07:42:31;;;;;;;13.00;4.10;;;12.20;99.90;;;12.11;54.26;101331.81;5094313;28;20047;-70
2023/04/25 07:44:59;;;;;;;9.70;4.60;;;12.00;99.90;;;12.31;54.26;101337.06;5094796;28;20044;-71
2023/04/25 07:47:29;;;;;;;10.57;4.78;;;12.10;99.90;;;12.21;53.53;101333.56;5112836;28;20480;-68
2023/04/25 07:49:58;;;;;;;;;;;12.20;99.90;;;12.24;54.67;101340.59;5096064;28;20093;-67
2023/04/25 07:52:26;;;;;;;13.93;4.63;;;12.20;99.90;;;11.73;56.96;101345.16;5116668;28;19920;-69
2023/04/25 07:55:03;;;;;;;9.82;4.30;;;11.70;99.90;;;11.92;56.52;101345.13;5098003;28;20070;-71
2023/04/25 07:57:41;;;;;;;10.40;4.10;;;11.70;99.90;;;11.20;58.43;101357.50;5098289;28;20055;-70
2023/04/25 08:00:12;;;;;;;12.85;4.82;;;11.10;99.90;;;11.01;58.50;101350.44;5098085;28;20077;-73
2023/04/25 08:02:44;;;;;;;10.93;4.18;;;10.90;99.90;;;10.80;58.47;101363.63;5098172;28;20052;-71
2023/04/25 08:05:17;;;;;;;13.13;4.50;;;10.70;99.90;;;10.41;58.77;101366.13;5098136;28;20130;-74
2023/04/25 08:07:56;;;;;;;8.90;4.18;;;10.40;99.90;;;10.93;58.76;101370.72;5098127;28;20477;-71
2023/04/25 08:10:25;;;;;;;12.48;4.25;;;10.70;99.90;;;10.99;57.00;101361.88;5098079;28;20051;-71
2023/04/25 08:12:53;;;;;;;8.18;4.30;;;10.80;99.90;;;10.87;57.15;101366.28;5097853;28;20385;-71
2023/04/25 08:15:23;;;;;;;11.68;4.60;;;10.80;99.90;;;10.74;58.21;101383.00;5097986;28;20048;-70
2023/04/25 08:17:53;;;;;;;10.55;4.18;;;10.60;99.90;;;11.34;57.65;101387.50;5097799;28;20496;-71
2023/04/25 08:20:22;;;;;;;14.50;4.45;;;11.10;99.90;;;11.67;56.50;101400.81;5116049;28;20047;-71
2023/04/25 08:22:53;;;;;;;9.95;3.97;;;11.40;99.90;;;11.62;55.35;101397.25;5097845;28;20438;-69
2023/04/25 08:25:35;;;;;;;9.02;3.80;;;11.50;99.90;;;11.64;54.59;101391.94;5097599;28;20097;-70
2023/04/25 08:28:04;;;;;;;10.35;4.57;;;11.60;99.90;;;11.34;55.71;101400.75;5097608;28;20043;-70
2023/04/25 08:30:33;;;;;;;14.27;4.47;;;11.30;99.90;;;11.02;56.48;101394.53;5097555;28;20592;-69
2023/04/25 08:33:03;;;;;;;7.35;3.88;;;11.00;99.90;;;10.88;57.30;101406.84;5097531;28;20407;-70
2023/04/25 08:35:50;;;;;;;10.88;4.10;;;10.80;99.90;;;11.06;57.49;101411.31;5115808;28;20047;-71
2023/04/25 08:38:19;;;;;;;10.57;4.28;;;10.80;99.90;;;10.81;56.98;101407.72;5097424;28;20058;-71
2023/04/25 08:40:51;;;;;;;9.88;4.28;;;10.70;99.90;;;10.74;57.93;101412.09;5097402;28;20042;-71
2023/04/25 08:43:21;;;;;;;14.32;4.57;;;10.60;99.90;;;11.00;57.76;101425.41;5097381;28;20036;-72
2023/04/25 08:45:51;;;;;;;12.35;4.40;;;10.80;99.90;;;11.38;57.03;101430.81;5097515;28;20040;-73
2023/04/25 08:48:38;;;;;;;13.05;4.43;;;11.10;99.90;;;11.52;57.46;101421.06;5096792;28;20096;-69
2023/04/25 08:51:09;;;;;;;12.93;4.63;;;11.30;99.90;;;11.87;57.28;101434.34;5097119;28;20048;-69
2023/04/25 08:53:43;;;;;;;10.20;4.32;;;11.60;99.90;;;11.68;56.49;101441.44;5097171;28;20458;-70
2023/04/25 08:56:20;;;;;;;11.68;4.80;;;11.60;99.90;;;11.55;57.09;101451.13;5096975;28;20040;-70
2023/04/25 08:58:50;;;;;;;10.90;4.63;;;11.40;99.90;;;11.32;55.80;101430.78;5097205;28;20468;-70
2023/04/25 09:01:20;;;;;;;12.45;4.75;;;11.30;99.90;;;11.43;56.87;101451.13;5096726;28;20054;-70
2023/04/25 09:03:55;;;;;;;11.63;4.25;;;11.20;99.90;;;11.63;55.33;101448.47;5096967;28;20062;-70
2023/04/25 09:06:25;;;;;;;;;;;11.40;99.90;;;11.72;54.53;101451.16;5115676;28;20093;-70
2023/04/25 09:08:54;;;;;;;10.13;4.90;;;11.50;99.90;;;11.88;54.16;101457.34;5114830;28;20273;-71
2023/04/25 09:11:22;;;;;;;13.45;4.78;;;11.70;99.90;;;11.74;54.06;101454.69;5114866;28;20827;-73
2023/04/25 09:14:15;;;;;;;8.93;4.20;;;11.70;99.90;;;11.70;53.25;101467.06;5096784;28;20074;-70
2023/04/25 09:17:04;;;;;;;11.35;4.20;;;11.60;99.90;;;11.44;54.02;101474.06;5115065;28;20473;-68
2023/04/25 09:19:41;;;;;;;11.48;4.80;;;11.30;99.90;;;11.44;54.50;101463.47;5096306;28;20089;-70
2023/04/25 09:22:28;;;;;;;8.13;4.28;;;11.40;99.90;;;11.82;53.27;101465.28;5096401;28;20138;-67
2023/04/25 09:24:57;;;;;;;11.55;4.40;;;11.50;99.90;;;11.76;52.38;101480.31;5096460;28;20048;-65
2023/04/25 09:27:28;;;;;;;9.77;4.65;;;11.70;99.90;;;11.95;53.55;101483.84;5096413;28;20046;-69
2023/04/25 09:30:07;;;;;;;10.90;4.28;;;11.70;99.90;;;11.58;54.76;101477.63;5096522;28;20047;-67
2023/04/25 09:32:58;;;;;;;9.18;5.00;;;11.50;99.90;;;11.95;54.70;101485.59;5096342;28;20134;-66
2023/04/25 09:35:28;;;;;;;11.18;4.70;;;11.70;99.90;;;11.89;55.06;101481.19;5114652;28;20096;-66
2023/04/25 09:38:00;;;;;;;14.35;4.47;;;11.80;99.90;;;12.02;55.69;101490.91;5096313;28;20075;-70
2023/04/25 09:40:53;;;;;;;10.18;4.28;;;11.70;99.90;;;12.24;55.38;101487.38;5103204;28;20051;-73
2023/04/25 09:43:40;;;;;;;11.45;4.38;;;12.00;99.90;;;12.58;55.09;101504.13;5095959;28;20044;-73
2023/04/25 09:46:10;;;;;;;13.80;4.15;;;12.40;99.90;;;12.66;52.79;101494.34;5095837;28;20051;-73
2023/04/25 09:48:50;;;;;;;8.93;4.55;;;12.60;99.90;;;12.37;53.80;101506.78;5072459;28;20044;-73
2023/04/25 09:51:28;;;;;;;10.73;4.53;;;12.40;99.90;;;12.94;53.96;101497.78;5072478;28;20056;-73
2023/04/25 09:53:59;;;;;;;10.55;4.10;;;12.70;99.90;;;12.67;52.43;101491.72;5072389;28;20050;-73
2023/04/25 09:56:38;;;;;;;10.38;4.43;;;12.60;99.90;;;13.01;52.02;101520.78;5072298;28;20136;-73
2023/04/25 09:59:10;;;;;;;11.18;4.70;;;12.80;99.90;;;13.10;51.65;101516.38;5072296;28;20047;-73
2023/04/25 10:01:42;;;;;;;11.13;4.43;;;12.90;99.90;;;12.99;52.17;101517.28;5072202;28;20564;-73
2023/04/25 10:04:26;;;;;;;11.15;4.30;;;12.90;99.90;;;13.30;52.25;101514.47;5071930;28;20055;-73
2023/04/25 10:07:04;;;;;;;9.95;4.80;;;13.10;99.90;;;13.41;51.68;101528.59;5071824;28;20098;-72
2023/04/25 10:09:34;;;;;;;9.98;4.65;;;13.30;99.90;;;13.22;50.27;101524.25;5072061;28;20044;-73
2023/04/25 10:12:04;;;;;;;8.10;4.40;;;13.20;99.90;;;12.70;49.14;101527.94;5072703;28;20044;-74
2023/04/25 10:14:33;;;;;;;8.55;4.25;;;12.80;99.90;;;12.90;49.52;101527.91;5072939;28;20100;-73
2023/04/25 10:17:02;;;;;;;7.40;4.43;;;12.70;99.90;;;12.96;49.79;101528.78;5071835;28;20542;-73
2023/04/25 10:19:33;;;;;;;15.48;5.00;;;12.80;99.90;;;13.05;51.17;101526.09;5072894;28;20041;-74
2023/04/25 10:22:12;;;;;;;9.98;4.32;;;12.90;99.90;;;13.51;51.12;101534.75;5072847;28;20090;-74
2023/04/25 10:24:41;;;;;;;9.73;4.20;;;13.30;99.90;;;13.07;50.68;101534.94;5073396;28;20094;-73
2023/04/25 10:27:10;;;;;;;11.10;4.35;;;13.10;99.90;;;12.66;52.04;101531.50;5072836;28;20045;-73
2023/04/25 10:29:38;;;;;;;16.60;4.90;;;12.70;99.90;;;12.35;53.03;101540.44;5073076;28;20414;-74
2023/04/25 10:32:06;;;;;;;15.18;4.63;;;12.30;99.90;;;12.21;52.21;101537.78;5071331;28;20059;-73
2023/04/25 10:34:43;;;;;;;12.07;4.55;;;12.10;99.90;;;12.09;51.58;101532.47;5072687;28;20102;-73